Time;durP1;ratioP1;P1;durP2;ratioP2;P2;SDS_P1;SDS_P2;PMS_P1;PMS_P2;Temp;Humidity;BMP_temperature;BMP_pressure;BME280_temperature;BME280_humidity;BME280_pressure;Samples;Min_cycle;Max_cycle;Signal;HPM_P1;HPM_P2
2022/05/30 00:00:21;;;;;;;0.50;0.50;;;7.30;99.90;;;;;;5009304;28;20064;-78
2022/05/30 00:02:48;;;;;;;0.63;0.63;;;6.90;99.90;;;;;;5009642;28;20092;-78
2022/05/30 00:05:15;;;;;;;0.50;0.50;;;6.80;99.90;;;;;;5034828;28;20037;-81
2022/05/30 00:07:41;;;;;;;0.50;0.50;;;6.80;99.90;;;;;;5052986;28;20230;-78
2022/05/30 00:10:08;;;;;;;;;;;6.80;99.90;;;;;;5021368;28;20509;-78
2022/05/30 00:12:34;;;;;;;0.40;0.40;;;6.80;99.90;;;;;;5040253;28;19953;-80
2022/05/30 00:14:59;;;;;;;0.40;0.40;;;6.80;99.90;;;;;;5027662;28;20053;-79
2022/05/30 00:17:25;;;;;;;0.50;0.50;;;6.70;99.90;;;;;;5018169;28;20418;-80
2022/05/30 00:19:51;;;;;;;0.60;0.60;;;6.70;99.90;;;;;;5017648;28;20047;-77
2022/05/30 00:22:18;;;;;;;0.60;0.60;;;6.60;99.90;;;;;;5024864;28;20075;-80
2022/05/30 00:24:44;;;;;;;1.23;1.20;;;6.60;99.90;;;;;;5016796;28;20080;-81
2022/05/30 00:27:11;;;;;;;0.80;0.80;;;6.60;99.90;;;;;;5034861;28;20048;-77
2022/05/30 00:29:38;;;;;;;0.60;0.60;;;6.60;99.90;;;;;;5005563;28;20041;-80
2022/05/30 00:32:06;;;;;;;0.40;0.40;;;6.50;99.90;;;;;;5025755;28;20049;-80
2022/05/30 00:34:36;;;;;;;0.47;0.47;;;6.50;99.90;;;;;;5030347;28;20045;-80
2022/05/30 00:37:04;;;;;;;0.50;0.50;;;6.60;99.90;;;;;;5068067;28;20512;-79
2022/05/30 00:39:32;;;;;;;0.55;0.55;;;6.50;99.90;;;;;;5035031;28;20048;-79
2022/05/30 00:42:25;;;;;;;;;;;6.50;99.90;;;;;;5015107;28;20092;-80
2022/05/30 00:44:53;;;;;;;0.55;0.55;;;6.60;99.90;;;;;;5000684;28;20383;-79
2022/05/30 00:47:21;;;;;;;0.47;0.47;;;6.70;99.90;;;;;;5030432;28;20071;-79
2022/05/30 00:49:48;;;;;;;0.40;0.40;;;6.70;99.90;;;;;;5017863;28;20080;-80
2022/05/30 00:52:32;;;;;;;0.57;0.57;;;6.80;99.90;;;;;;5032043;28;20107;-78
2022/05/30 00:55:06;;;;;;;0.50;0.50;;;6.90;99.90;;;;;;5041717;28;20506;-79
2022/05/30 00:57:33;;;;;;;0.40;0.40;;;7.00;99.90;;;;;;5035938;28;20067;-81
2022/05/30 01:00:19;;;;;;;0.50;0.50;;;7.60;99.90;;;;;;5023710;28;20422;-81
2022/05/30 01:02:46;;;;;;;0.50;0.50;;;7.20;99.90;;;;;;5020863;28;20065;-78
2022/05/30 01:08:01;;;;;;;0.40;0.40;;;7.20;99.90;;;;;;5048070;28;20441;-83
2022/05/30 01:10:28;;;;;;;0.30;0.30;;;7.20;99.90;;;;;;4998068;28;20057;-78
2022/05/30 01:12:56;;;;;;;0.50;0.50;;;7.30;99.90;;;;;;5034754;28;20582;-80
2022/05/30 01:15:31;;;;;;;0.40;0.40;;;7.10;99.90;;;;;;5016263;28;20064;-82
2022/05/30 01:18:23;;;;;;;0.60;0.60;;;7.20;99.90;;;;;;5031502;28;20147;-81
2022/05/30 01:21:26;;;;;;;0.63;0.63;;;7.10;99.90;;;;;;5021002;28;20098;-81
2022/05/30 01:24:05;;;;;;;0.40;0.40;;;7.00;99.90;;;;;;5003492;28;20048;-80
2022/05/30 01:26:42;;;;;;;0.82;0.82;;;6.90;99.90;;;;;;5017652;28;20081;-80
2022/05/30 01:29:17;;;;;;;0.50;0.50;;;6.90;99.90;;;;;;5022514;28;20554;-81
2022/05/30 01:31:43;;;;;;;0.57;0.57;;;6.70;99.90;;;;;;5027214;28;20124;-81
2022/05/30 01:34:09;;;;;;;;;;;6.60;99.90;;;;;;5014007;28;20052;-79
2022/05/30 01:36:35;;;;;;;0.50;0.50;;;6.50;99.90;;;;;;5046555;28;19924;-80
2022/05/30 01:39:02;;;;;;;0.40;0.40;;;6.60;99.90;;;;;;5018041;28;20038;-80
2022/05/30 01:41:28;;;;;;;0.60;0.60;;;6.70;99.90;;;;;;5059044;28;20041;-81
2022/05/30 01:43:54;;;;;;;0.40;0.40;;;6.40;99.90;;;;;;5015613;28;20049;-79
2022/05/30 01:46:21;;;;;;;0.60;0.60;;;6.20;99.90;;;;;;5006468;28;20132;-81
2022/05/30 01:48:48;;;;;;;0.52;0.52;;;6.10;99.90;;;;;;5020127;28;20038;-80
2022/05/30 01:51:15;;;;;;;0.60;0.60;;;6.00;99.90;;;;;;5037511;28;20151;-79
2022/05/30 01:53:41;;;;;;;0.60;0.60;;;6.00;99.90;;;;;;5005306;28;20387;-81
2022/05/30 01:56:07;;;;;;;0.70;0.70;;;5.90;99.90;;;;;;5001246;28;20074;-82
2022/05/30 01:58:34;;;;;;;0.63;0.63;;;6.00;99.90;;;;;;5037035;28;20128;-79
2022/05/30 02:01:16;;;;;;;0.50;0.50;;;5.80;99.90;;;;;;5012762;28;20038;-80
2022/05/30 02:03:43;;;;;;;0.60;0.60;;;5.70;99.90;;;;;;5024690;28;20073;-81
2022/05/30 02:06:09;;;;;;;0.43;0.43;;;5.60;99.90;;;;;;5015506;28;20103;-81
2022/05/30 02:08:35;;;;;;;0.65;0.65;;;5.60;99.90;;;;;;5025477;28;20037;-85
2022/05/30 02:11:00;;;;;;;0.60;0.60;;;5.80;99.90;;;;;;5021566;28;20052;-80
2022/05/30 02:13:26;;;;;;;0.50;0.50;;;5.60;99.90;;;;;;4999170;28;20045;-81
2022/05/30 02:18:36;;;;;;;0.50;0.50;;;5.60;99.90;;;;;;5032803;28;20045;-78
2022/05/30 02:21:02;;;;;;;0.50;0.50;;;5.60;99.90;;;;;;5001304;28;20041;-78
2022/05/30 02:23:27;;;;;;;0.60;0.60;;;5.60;99.90;;;;;;5018446;28;20052;-79
2022/05/30 02:25:53;;;;;;;0.60;0.60;;;5.50;99.90;;;;;;5034592;28;20513;-81
2022/05/30 02:28:19;;;;;;;0.60;0.60;;;5.50;99.90;;;;;;5031994;28;20175;-80
2022/05/30 02:30:45;;;;;;;0.60;0.60;;;5.50;99.90;;;;;;5034287;28;20064;-80
2022/05/30 02:38:39;;;;;;;0.50;0.50;;;5.50;99.90;;;;;;5026127;28;20091;-80
2022/05/30 02:41:05;;;;;;;0.70;0.70;;;5.50;99.90;;;;;;5038273;28;20473;-81
2022/05/30 02:43:31;;;;;;;0.70;0.70;;;5.50;99.90;;;;;;5025855;28;20137;-80
2022/05/30 02:45:56;;;;;;;0.50;0.50;;;5.50;99.90;;;;;;5029152;28;20049;-82
2022/05/30 02:48:22;;;;;;;0.60;0.60;;;5.50;99.90;;;;;;5060003;28;20082;-81
2022/05/30 02:50:48;;;;;;;0.60;0.60;;;5.50;99.90;;;;;;5019326;28;20458;-80
2022/05/30 02:53:15;;;;;;;0.50;0.50;;;5.50;99.90;;;;;;5028515;28;20045;-81
2022/05/30 02:55:40;;;;;;;0.70;0.70;;;5.60;99.90;;;;;;5001421;28;20125;-79
2022/05/30 02:58:06;;;;;;;0.50;0.50;;;5.70;99.90;;;;;;5035634;28;20190;-81
2022/05/30 03:00:32;;;;;;;0.57;0.57;;;5.80;99.90;;;;;;5000497;28;20099;-80
2022/05/30 03:02:58;;;;;;;0.50;0.50;;;5.90;99.90;;;;;;4999617;28;20041;-80
2022/05/30 03:05:23;;;;;;;0.55;0.55;;;6.20;99.90;;;;;;5032212;28;20033;-79
2022/05/30 03:07:50;;;;;;;0.50;0.50;;;6.20;99.90;;;;;;5009737;28;20042;-80
2022/05/30 03:10:18;;;;;;;0.50;0.50;;;6.30;99.90;;;;;;5047771;28;20072;-80
2022/05/30 03:12:46;;;;;;;0.60;0.60;;;6.40;99.90;;;;;;5031596;28;20057;-80
2022/05/30 03:15:17;;;;;;;0.60;0.60;;;6.50;99.90;;;;;;4998547;28;20055;-78
2022/05/30 03:17:42;;;;;;;0.40;0.40;;;6.70;99.90;;;;;;4982841;28;20499;-79
2022/05/30 03:20:10;;;;;;;0.50;0.50;;;6.70;99.90;;;;;;5029096;28;20091;-79
2022/05/30 03:22:35;;;;;;;0.60;0.60;;;6.80;99.90;;;;;;5015880;28;20034;-80
2022/05/30 03:25:01;;;;;;;0.47;0.47;;;6.80;99.90;;;;;;5015219;28;20501;-81
2022/05/30 03:27:27;;;;;;;0.50;0.50;;;7.10;99.90;;;;;;5059495;28;20041;-81
2022/05/30 03:29:52;;;;;;;0.50;0.50;;;6.90;99.90;;;;;;5035502;28;20044;-81
2022/05/30 03:32:24;;;;;;;0.40;0.40;;;6.90;99.90;;;;;;5035587;28;20086;-80
2022/05/30 03:34:49;;;;;;;0.45;0.45;;;7.00;99.90;;;;;;5033881;28;20120;-82
2022/05/30 03:37:15;;;;;;;0.60;0.60;;;7.00;99.90;;;;;;5034743;28;20151;-78
2022/05/30 03:39:41;;;;;;;0.57;0.57;;;7.50;99.90;;;;;;5000221;28;20033;-81
2022/05/30 03:42:15;;;;;;;0.80;0.80;;;7.10;99.90;;;;;;5015903;28;20092;-79
2022/05/30 03:44:43;;;;;;;0.60;0.60;;;7.10;99.90;;;;;;5006164;28;20049;-80
2022/05/30 03:47:10;;;;;;;0.50;0.50;;;7.10;99.90;;;;;;5026302;28;20046;-81
2022/05/30 03:49:41;;;;;;;0.50;0.50;;;7.20;99.90;;;;;;5020860;28;20112;-80
2022/05/30 03:52:09;;;;;;;0.30;0.30;;;7.20;99.90;;;;;;5026088;28;20389;-79
2022/05/30 03:54:35;;;;;;;0.60;0.60;;;7.20;99.90;;;;;;5005063;28;20410;-83
2022/05/30 03:57:03;;;;;;;0.38;0.38;;;7.20;99.90;;;;;;5035505;28;20041;-79
2022/05/30 03:59:34;;;;;;;0.50;0.50;;;7.20;99.90;;;;;;5034923;28;20048;-80
2022/05/30 04:02:02;;;;;;;0.50;0.50;;;7.20;99.90;;;;;;5038911;28;20034;-81
2022/05/30 04:04:27;;;;;;;0.50;0.50;;;7.20;99.90;;;;;;5026217;28;20033;-80
2022/05/30 04:06:54;;;;;;;0.52;0.52;;;7.20;99.90;;;;;;5029572;28;20124;-83
2022/05/30 04:09:20;;;;;;;0.50;0.50;;;7.20;99.90;;;;;;5034847;28;20174;-82
2022/05/30 04:11:46;;;;;;;0.40;0.40;;;7.30;99.90;;;;;;5051318;28;20132;-81
2022/05/30 04:14:11;;;;;;;0.50;0.50;;;7.30;99.90;;;;;;5007263;28;20480;-78
2022/05/30 04:16:37;;;;;;;0.52;0.52;;;7.30;99.90;;;;;;4999114;28;20372;-82
2022/05/30 04:19:03;;;;;;;0.40;0.40;;;7.40;99.90;;;;;;5043656;28;20050;-80
2022/05/30 04:21:28;;;;;;;0.80;0.80;;;7.40;99.90;;;;;;5018870;28;20100;-82
2022/05/30 04:23:54;;;;;;;0.40;0.40;;;7.40;99.90;;;;;;5010167;28;20120;-80
2022/05/30 04:26:20;;;;;;;0.45;0.45;;;7.50;99.90;;;;;;5028148;28;20041;-82
2022/05/30 04:28:45;;;;;;;0.60;0.60;;;7.50;99.90;;;;;;5023893;28;20550;-80
2022/05/30 04:31:13;;;;;;;0.50;0.50;;;7.60;99.90;;;;;;5034802;28;20044;-83
2022/05/30 04:33:42;;;;;;;0.50;0.50;;;7.60;99.90;;;;;;5017752;28;20095;-79
2022/05/30 04:36:12;;;;;;;0.40;0.40;;;7.60;99.90;;;;;;5034631;28;20072;-78
2022/05/30 04:38:38;;;;;;;0.60;0.60;;;7.60;99.90;;;;;;5036506;28;20037;-79
2022/05/30 04:41:04;;;;;;;0.40;0.40;;;7.60;99.90;;;;;;5036278;28;20041;-80
2022/05/30 04:43:30;;;;;;;0.60;0.60;;;7.70;99.90;;;;;;5024067;28;20049;-82
2022/05/30 04:46:19;;;;;;;0.57;0.57;;;7.80;99.90;;;;;;5035054;28;20049;-78
2022/05/30 04:48:46;;;;;;;0.32;0.32;;;7.80;99.90;;;;;;5037542;28;20445;-81
2022/05/30 04:51:11;;;;;;;0.60;0.60;;;7.80;99.90;;;;;;5030109;28;20368;-82
2022/05/30 04:53:40;;;;;;;0.50;0.50;;;7.80;99.90;;;;;;5036770;28;20049;-83
2022/05/30 04:56:06;;;;;;;0.52;0.52;;;7.90;99.90;;;;;;5016824;28;20045;-81
2022/05/30 04:58:35;;;;;;;0.50;0.50;;;8.00;99.90;;;;;;5032354;28;20068;-82
2022/05/30 05:01:06;;;;;;;0.50;0.50;;;8.00;99.90;;;;;;5045197;28;20128;-80
2022/05/30 05:03:34;;;;;;;0.50;0.50;;;8.20;99.90;;;;;;4997845;28;20037;-81
2022/05/30 05:06:12;;;;;;;0.43;0.43;;;8.30;99.90;;;;;;5036960;28;20033;-81
2022/05/30 05:09:04;;;;;;;0.40;0.40;;;8.40;99.90;;;;;;5049300;28;20525;-79
2022/05/30 05:11:32;;;;;;;0.88;0.88;;;8.40;99.90;;;;;;5042611;28;20076;-80
2022/05/30 05:13:58;;;;;;;0.40;0.40;;;8.50;99.90;;;;;;5051435;28;20037;-79
2022/05/30 05:16:27;;;;;;;0.50;0.50;;;8.40;99.90;;;;;;5034080;28;20056;-82
2022/05/30 05:18:54;;;;;;;0.40;0.40;;;8.50;99.90;;;;;;5039115;28;20428;-80
2022/05/30 05:21:29;;;;;;;0.60;0.60;;;8.50;99.90;;;;;;5020043;28;20069;-79
2022/05/30 05:24:05;;;;;;;0.50;0.50;;;8.50;99.90;;;;;;5032748;28;20039;-79
2022/05/30 05:26:31;;;;;;;0.52;0.52;;;8.40;99.90;;;;;;5027385;28;20124;-82
2022/05/30 05:28:59;;;;;;;0.50;0.50;;;8.40;99.90;;;;;;5025109;28;20132;-81
2022/05/30 05:31:26;;;;;;;0.60;0.60;;;8.40;99.90;;;;;;5019821;28;20044;-80
2022/05/30 05:33:54;;;;;;;0.40;0.40;;;8.30;99.90;;;;;;5043180;28;20045;-79
2022/05/30 05:36:22;;;;;;;0.65;0.65;;;8.30;99.90;;;;;;5033702;28;20046;-79
2022/05/30 05:38:54;;;;;;;1.85;1.75;;;8.40;99.90;;;;;;4994084;28;20113;-79
2022/05/30 05:41:23;;;;;;;0.60;0.60;;;8.40;99.90;;;;;;5024322;28;20033;-79
2022/05/30 05:43:52;;;;;;;0.50;0.50;;;8.50;99.90;;;;;;5037500;28;20049;-81
2022/05/30 05:46:22;;;;;;;0.40;0.40;;;8.50;99.90;;;;;;5031223;28;20045;-82
2022/05/30 05:48:48;;;;;;;0.50;0.50;;;8.70;99.90;;;;;;5011358;28;20422;-81
2022/05/30 05:51:14;;;;;;;0.43;0.43;;;8.80;99.90;;;;;;5023580;28;20044;-82
2022/05/30 05:53:42;;;;;;;0.40;0.40;;;9.00;99.90;;;;;;5004982;28;20131;-85
2022/05/30 05:56:17;;;;;;;0.57;0.57;;;9.10;99.90;;;;;;5008581;28;20045;-81
2022/05/30 05:58:43;;;;;;;0.40;0.40;;;9.30;99.90;;;;;;5023811;28;20041;-83
2022/05/30 06:01:10;;;;;;;0.45;0.45;;;9.40;99.90;;;;;;5034472;28;20040;-83
2022/05/30 06:03:36;;;;;;;0.43;0.43;;;9.60;99.90;;;;;;4989928;28;20521;-78
2022/05/30 06:06:06;;;;;;;0.40;0.40;;;9.90;99.90;;;;;;5015548;28;20145;-82
2022/05/30 06:08:33;;;;;;;0.60;0.60;;;10.10;99.90;;;;;;5011331;28;20041;-79
2022/05/30 06:11:05;;;;;;;0.40;0.40;;;10.20;99.90;;;;;;5028621;28;20037;-79
2022/05/30 06:13:32;;;;;;;0.60;0.60;;;10.20;99.90;;;;;;5034324;28;20042;-79
2022/05/30 06:15:58;;;;;;;0.35;0.35;;;10.30;99.90;;;;;;5045183;28;20098;-80
2022/05/30 06:18:24;;;;;;;0.50;0.50;;;10.40;99.90;;;;;;5020035;28;20479;-79
2022/05/30 06:20:57;;;;;;;0.50;0.50;;;10.50;99.90;;;;;;5033476;28;20087;-78
2022/05/30 06:23:29;;;;;;;0.38;0.38;;;10.50;99.90;;;;;;5007473;28;20143;-76
2022/05/30 06:25:55;;;;;;;0.35;0.35;;;10.50;99.90;;;;;;5035177;28;20430;-78
2022/05/30 06:28:24;;;;;;;0.30;0.30;;;10.50;99.90;;;;;;5018445;28;20038;-81
2022/05/30 06:30:50;;;;;;;0.40;0.40;;;10.40;99.90;;;;;;5017166;28;20060;-81
2022/05/30 06:33:17;;;;;;;0.40;0.40;;;10.40;99.90;;;;;;5035760;28;20044;-79
2022/05/30 06:35:47;;;;;;;0.45;0.45;;;10.40;99.90;;;;;;5007535;28;20095;-81
2022/05/30 06:38:13;;;;;;;0.45;0.45;;;10.40;99.90;;;;;;5019709;28;20026;-79
2022/05/30 06:40:45;;;;;;;0.32;0.32;;;10.40;99.90;;;;;;5016629;28;20116;-79
2022/05/30 06:43:10;;;;;;;0.40;0.40;;;10.40;99.90;;;;;;5056596;28;20056;-80
2022/05/30 06:45:36;;;;;;;0.35;0.35;;;10.40;99.90;;;;;;5018838;28;20102;-80
2022/05/30 06:48:02;;;;;;;0.52;0.52;;;10.40;99.90;;;;;;5000466;28;20071;-80
2022/05/30 06:50:28;;;;;;;0.38;0.38;;;10.30;99.90;;;;;;5015210;28;20529;-81
2022/05/30 06:52:54;;;;;;;0.50;0.50;;;10.30;99.90;;;;;;5030712;28;20041;-79
2022/05/30 06:55:20;;;;;;;;;;;10.40;99.90;;;;;;5017687;28;20041;-78
2022/05/30 07:00:31;;;;;;;0.50;0.50;;;10.50;99.90;;;;;;5065547;28;20414;-84
2022/05/30 07:02:58;;;;;;;0.30;0.30;;;10.60;99.90;;;;;;5043239;28;20042;-81
2022/05/30 07:05:24;;;;;;;0.40;0.40;;;10.70;99.90;;;;;;5024118;28;20117;-84
2022/05/30 07:07:55;;;;;;;0.40;0.40;;;10.80;99.90;;;;;;5003007;28;20156;-81
2022/05/30 07:10:22;;;;;;;0.40;0.40;;;10.80;99.90;;;;;;5004285;28;20052;-80
2022/05/30 07:12:49;;;;;;;0.40;0.40;;;10.80;99.90;;;;;;5015289;28;20122;-82
2022/05/30 07:15:15;;;;;;;0.40;0.40;;;10.90;99.90;;;;;;5016789;28;20049;-82
2022/05/30 07:17:41;;;;;;;0.30;0.30;;;10.80;99.90;;;;;;5025058;28;20129;-79
2022/05/30 07:20:07;;;;;;;0.50;0.50;;;10.90;99.90;;;;;;5051030;28;20116;-81
2022/05/30 07:22:39;;;;;;;0.30;0.30;;;11.00;99.90;;;;;;5025159;28;20041;-83
2022/05/30 07:25:06;;;;;;;0.30;0.30;;;11.20;99.90;;;;;;5020744;28;20072;-78
2022/05/30 07:27:31;;;;;;;0.25;0.25;;;11.20;99.90;;;;;;5019723;28;20052;-79
2022/05/30 07:29:57;;;;;;;0.50;0.50;;;11.30;99.90;;;;;;5000193;28;20045;-80
2022/05/30 07:32:23;;;;;;;0.40;0.40;;;11.30;99.90;;;;;;5033182;28;20126;-80
2022/05/30 07:34:48;;;;;;;0.40;0.40;;;11.30;99.90;;;;;;5031498;28;20048;-79
2022/05/30 07:37:14;;;;;;;0.43;0.43;;;11.30;99.90;;;;;;5032499;28;20046;-80
2022/05/30 07:39:40;;;;;;;0.63;0.63;;;11.20;99.90;;;;;;5038592;28;20044;-80
2022/05/30 07:42:10;;;;;;;0.40;0.40;;;11.20;99.90;;;;;;5035220;28;20293;-77
2022/05/30 07:44:36;;;;;;;0.30;0.30;;;11.10;99.90;;;;;;5034210;28;20123;-82
2022/05/30 07:47:02;;;;;;;0.35;0.35;;;11.10;99.90;;;;;;5058128;28;20049;-82
2022/05/30 07:49:28;;;;;;;0.30;0.30;;;11.10;99.90;;;;;;5037674;28;20412;-80
2022/05/30 07:51:53;;;;;;;0.40;0.40;;;11.10;99.90;;;;;;5060352;28;20076;-80
2022/05/30 07:54:21;;;;;;;0.47;0.47;;;11.10;99.90;;;;;;5018684;28;20045;-79
2022/05/30 07:56:47;;;;;;;0.30;0.30;;;11.30;99.90;;;;;;5015775;28;20049;-82
2022/05/30 07:59:13;;;;;;;0.40;0.40;;;11.50;99.90;;;;;;5029391;28;20047;-79
2022/05/30 08:01:39;;;;;;;0.50;0.50;;;11.70;99.90;;;;;;5026432;28;20041;-79
2022/05/30 08:04:12;;;;;;;0.30;0.30;;;11.90;99.90;;;;;;5017676;28;20053;-80
2022/05/30 08:06:38;;;;;;;0.40;0.40;;;12.40;99.90;;;;;;5022148;28;20103;-80
2022/05/30 08:09:04;;;;;;;;;;;12.70;99.90;;;;;;5021597;28;20072;-81
2022/05/30 08:11:36;;;;;;;0.40;0.40;;;12.80;99.90;;;;;;5019278;28;20097;-79
2022/05/30 08:14:01;;;;;;;0.30;0.30;;;13.00;99.90;;;;;;5014884;28;20456;-80
2022/05/30 08:16:28;;;;;;;0.38;0.38;;;13.10;99.90;;;;;;5062939;28;20102;-80
2022/05/30 08:18:53;;;;;;;0.40;0.40;;;12.90;99.90;;;;;;5068812;28;20123;-81
2022/05/30 08:21:19;;;;;;;0.20;0.20;;;12.60;99.90;;;;;;5068948;28;20471;-80
2022/05/30 08:23:45;;;;;;;0.40;0.40;;;12.30;99.90;;;;;;5040855;28;20044;-78
2022/05/30 08:26:13;;;;;;;0.40;0.40;;;12.10;99.90;;;;;;5032192;28;20094;-81
2022/05/30 08:28:40;;;;;;;0.32;0.32;;;12.10;99.90;;;;;;5059852;28;20080;-77
2022/05/30 08:31:06;;;;;;;0.35;0.35;;;12.30;99.90;;;;;;4983653;28;20183;-82
2022/05/30 08:33:32;;;;;;;0.50;0.50;;;12.60;99.90;;;;;;5042451;28;20123;-78
2022/05/30 08:36:04;;;;;;;0.50;0.50;;;12.90;99.90;;;;;;5029741;28;20036;-79
2022/05/30 08:38:33;;;;;;;0.30;0.30;;;13.30;99.90;;;;;;5027835;28;20046;-81
2022/05/30 08:43:51;;;;;;;0.47;0.47;;;13.40;99.90;;;;;;5014224;28;20049;-79
2022/05/30 08:46:39;;;;;;;0.95;0.50;;;13.20;99.90;;;;;;4994517;28;20077;-79
2022/05/30 08:49:14;;;;;;;0.30;0.30;;;13.00;99.90;;;;;;5016837;28;20043;-78
2022/05/30 08:52:04;;;;;;;0.30;0.30;;;12.70;99.90;;;;;;5009276;28;20056;-79
2022/05/30 08:54:59;;;;;;;0.40;0.40;;;12.60;99.90;;;;;;5033473;28;20045;-81
2022/05/30 08:57:47;;;;;;;0.28;0.28;;;12.40;99.90;;;;;;5018255;28;20045;-80
2022/05/30 09:00:31;;;;;;;0.40;0.40;;;12.30;99.90;;;;;;5027376;28;20361;-78
2022/05/30 09:03:07;;;;;;;0.60;0.60;;;12.20;99.90;;;;;;5067361;28;20401;-79
2022/05/30 09:05:41;;;;;;;0.50;0.50;;;12.30;99.90;;;;;;5029450;28;20044;-79
2022/05/30 09:08:14;;;;;;;0.30;0.30;;;12.30;99.90;;;;;;5025980;28;20068;-81
2022/05/30 09:10:41;;;;;;;0.40;0.40;;;12.40;99.90;;;;;;5061011;28;20122;-80
2022/05/30 09:13:18;;;;;;;0.30;0.30;;;12.50;99.90;;;;;;5047187;28;20064;-80
2022/05/30 09:16:00;;;;;;;0.40;0.40;;;12.50;99.90;;;;;;5010728;28;20126;-80
2022/05/30 09:18:41;;;;;;;0.30;0.30;;;12.40;99.90;;;;;;5067451;28;20071;-79
2022/05/30 09:21:08;;;;;;;0.30;0.30;;;12.30;99.90;;;;;;5000927;28;20040;-79
2022/05/30 09:23:36;;;;;;;0.40;0.40;;;12.10;99.90;;;;;;5048014;28;20043;-78
2022/05/30 09:26:07;;;;;;;0.50;0.50;;;12.10;99.90;;;;;;5060145;28;20037;-76
2022/05/30 09:28:36;;;;;;;0.40;0.40;;;12.20;99.90;;;;;;5044069;28;20495;-81
2022/05/30 09:31:35;;;;;;;0.35;0.35;;;12.20;99.90;;;;;;5027003;28;20117;-79
2022/05/30 09:34:32;;;;;;;0.40;0.40;;;12.50;99.90;;;;;;4979886;28;20384;-79
2022/05/30 09:36:59;;;;;;;0.35;0.35;;;12.80;99.90;;;;;;5032516;28;20124;-79
2022/05/30 09:39:25;;;;;;;0.30;0.30;;;13.10;99.90;;;;;;5046902;28;20050;-84
2022/05/30 09:41:55;;;;;;;;;;;13.30;99.90;;;;;;5038231;28;20648;-81
2022/05/30 09:44:26;;;;;;;0.40;0.40;;;13.40;99.90;;;;;;5030698;28;20346;-81
2022/05/30 09:47:03;;;;;;;0.45;0.45;;;13.40;99.90;;;;;;5043734;28;20075;-81
2022/05/30 09:49:41;;;;;;;0.30;0.30;;;13.30;99.90;;;;;;5006620;28;20072;-78
2022/05/30 09:52:26;;;;;;;0.22;0.22;;;13.20;99.90;;;;;;5016858;28;20129;-79
2022/05/30 09:54:54;;;;;;;0.30;0.30;;;13.10;99.90;;;;;;5003011;28;20102;-79
2022/05/30 09:57:42;;;;;;;0.35;0.35;;;13.10;99.90;;;;;;4996005;28;20453;-80
2022/05/30 10:00:19;;;;;;;0.25;0.25;;;13.20;99.90;;;;;;5021703;28;20037;-80
2022/05/30 10:02:45;;;;;;;0.40;0.40;;;13.40;99.90;;;;;;5007236;28;20569;-80
2022/05/30 10:05:20;;;;;;;0.32;0.32;;;13.50;99.90;;;;;;5025676;28;20088;-79
2022/05/30 10:07:56;;;;;;;0.30;0.30;;;13.60;99.90;;;;;;5013607;28;20049;-81
2022/05/30 10:10:24;;;;;;;0.38;0.38;;;13.90;99.90;;;;;;5010347;28;20076;-78
2022/05/30 10:13:09;;;;;;;0.25;0.25;;;14.20;99.90;;;;;;5017093;28;20052;-79
2022/05/30 10:15:38;;;;;;;0.35;0.35;;;14.40;99.90;;;;;;5020466;28;20446;-80
2022/05/30 10:18:13;;;;;;;0.40;0.40;;;14.60;99.90;;;;;;5035296;28;20440;-80
2022/05/30 10:21:06;;;;;;;0.40;0.40;;;14.80;99.90;;;;;;5025453;28;20527;-78
2022/05/30 10:30:23;;;;;;;0.30;0.30;;;14.70;99.90;;;;;;5016822;28;20132;-79
2022/05/30 10:33:14;;;;;;;0.40;0.40;;;14.70;99.90;;;;;;5032968;28;20088;-78
2022/05/30 10:36:24;;;;;;;0.30;0.30;;;14.70;99.90;;;;;;5037786;28;20104;-79
2022/05/30 10:39:26;;;;;;;0.30;0.30;;;14.60;99.90;;;;;;5016050;28;20049;-79
2022/05/30 10:42:04;;;;;;;0.35;0.35;;;14.40;99.90;;;;;;5059836;28;20072;-78
2022/05/30 10:44:40;;;;;;;0.40;0.40;;;14.10;99.90;;;;;;5018641;28;20041;-83
2022/05/30 10:47:17;;;;;;;0.45;0.45;;;13.90;99.90;;;;;;5006107;28;20048;-78
2022/05/30 10:49:50;;;;;;;0.52;0.52;;;13.90;99.90;;;;;;5018322;28;20079;-81
2022/05/30 10:52:37;;;;;;;0.30;0.30;;;13.70;99.90;;;;;;5030148;28;20041;-78
2022/05/30 10:55:11;;;;;;;0.75;0.63;;;13.50;99.90;;;;;;5035918;28;20071;-77
2022/05/30 10:57:36;;;;;;;0.30;0.30;;;13.40;99.90;;;;;;5023508;28;20052;-80
2022/05/30 11:00:16;;;;;;;0.30;0.30;;;13.40;99.90;;;;;;5041369;28;20041;-80
2022/05/30 11:03:23;;;;;;;0.40;0.40;;;13.30;99.90;;;;;;5004011;28;20069;-80
2022/05/30 11:06:08;;;;;;;0.32;0.32;;;13.40;99.90;;;;;;4957850;28;20047;-78
2022/05/30 11:09:04;;;;;;;0.63;0.63;;;13.60;99.90;;;;;;5032810;28;20107;-78
2022/05/30 11:11:58;;;;;;;0.40;0.40;;;13.80;99.90;;;;;;5000266;28;20041;-78
2022/05/30 11:14:45;;;;;;;0.40;0.40;;;13.90;99.90;;;;;;5026113;28;20045;-82
2022/05/30 11:17:27;;;;;;;0.30;0.30;;;13.90;99.90;;;;;;5029213;28;20085;-80
2022/05/30 11:20:05;;;;;;;0.30;0.30;;;14.00;99.90;;;;;;5015567;28;20045;-77
2022/05/30 11:22:49;;;;;;;0.43;0.43;;;14.40;99.90;;;;;;5010687;28;20405;-79
2022/05/30 11:25:34;;;;;;;0.30;0.30;;;14.60;99.90;;;;;;5016014;28;20034;-79
2022/05/30 11:28:25;;;;;;;0.40;0.40;;;14.80;99.90;;;;;;5016286;28;20046;-79
2022/05/30 11:31:05;;;;;;;0.30;0.30;;;15.00;99.90;;;;;;5016677;28;20045;-80
2022/05/30 11:33:44;;;;;;;0.30;0.30;;;15.20;99.90;;;;;;5029657;28;20048;-80
2022/05/30 11:36:37;;;;;;;0.22;0.22;;;15.20;99.90;;;;;;5036067;28;20044;-78
2022/05/30 11:39:44;;;;;;;0.30;0.30;;;15.20;99.90;;;;;;5038899;28;20064;-78
2022/05/30 11:42:25;;;;;;;0.30;0.30;;;15.20;99.90;;;;;;5029055;28;20064;-79
2022/05/30 11:45:29;;;;;;;0.30;0.30;;;15.20;99.90;;;;;;5035000;28;20038;-80
2022/05/30 11:48:23;;;;;;;0.30;0.30;;;15.30;99.90;;;;;;5015965;28;20053;-79
2022/05/30 11:51:09;;;;;;;0.60;0.60;;;15.50;99.90;;;;;;5019380;28;20046;-78
2022/05/30 11:53:59;;;;;;;0.30;0.30;;;15.40;99.90;;;;;;5035465;28;20067;-78
2022/05/30 11:56:55;;;;;;;0.28;0.28;;;15.30;99.90;;;;;;5027958;28;20076;-80
2022/05/30 11:59:46;;;;;;;0.30;0.30;;;15.10;99.90;;;;;;5028391;28;20467;-79
2022/05/30 12:02:24;;;;;;;0.45;0.45;;;15.00;99.90;;;;;;5031016;28;20051;-81
2022/05/30 12:05:09;;;;;;;0.30;0.30;;;15.00;99.90;;;;;;5023625;28;20150;-78
2022/05/30 12:07:59;;;;;;;0.30;0.30;;;14.90;99.90;;;;;;5022874;28;20127;-79
2022/05/30 12:10:47;;;;;;;0.30;0.30;;;15.00;99.90;;;;;;5031196;28;20565;-80
2022/05/30 12:13:34;;;;;;;0.30;0.30;;;14.70;99.90;;;;;;5025974;28;20052;-78
2022/05/30 12:16:27;;;;;;;0.20;0.20;;;14.30;99.90;;;;;;5042566;28;20099;-78
2022/05/30 12:24:40;;;;;;;1.00;0.93;;;12.80;99.90;;;;;;5033115;28;20133;-80
2022/05/30 12:27:32;;;;;;;0.60;0.60;;;12.40;99.90;;;;;;5009860;28;20050;-78
2022/05/30 12:30:00;;;;;;;0.40;0.40;;;12.10;99.90;;;;;;5016805;28;20063;-78
2022/05/30 12:32:37;;;;;;;0.47;0.47;;;12.00;99.90;;;;;;5005994;28;20053;-79
2022/05/30 12:35:21;;;;;;;0.30;0.30;;;11.90;99.90;;;;;;4998304;28;20132;-80
2022/05/30 12:38:09;;;;;;;0.40;0.40;;;11.90;99.90;;;;;;5000585;28;20049;-77
2022/05/30 12:40:54;;;;;;;0.40;0.40;;;12.00;99.90;;;;;;5012192;28;20033;-78
2022/05/30 12:43:23;;;;;;;0.50;0.50;;;12.10;99.90;;;;;;5050804;28;20068;-82
2022/05/30 12:45:55;;;;;;;2.60;1.45;;;12.20;99.90;;;;;;5029678;28;20498;-77
2022/05/30 12:48:39;;;;;;;0.45;0.45;;;12.30;99.90;;;;;;5057346;28;20093;-79
2022/05/30 12:51:26;;;;;;;0.45;0.45;;;12.40;99.90;;;;;;5004354;28;20049;-78
2022/05/30 12:53:55;;;;;;;0.50;0.50;;;12.40;99.90;;;;;;5021053;28;20127;-78
2022/05/30 12:56:39;;;;;;;0.47;0.47;;;12.40;99.90;;;;;;5021756;28;20416;-77
2022/05/30 12:59:16;;;;;;;0.40;0.40;;;12.30;99.90;;;;;;5020765;28;20041;-80
2022/05/30 13:01:44;;;;;;;0.40;0.40;;;12.20;99.90;;;;;;5050639;28;20029;-80
2022/05/30 13:04:25;;;;;;;0.43;0.43;;;12.10;99.90;;;;;;5015499;28;20053;-80
2022/05/30 13:07:14;;;;;;;0.40;0.40;;;12.00;99.90;;;;;;5011301;28;20047;-77
2022/05/30 13:09:44;;;;;;;0.40;0.40;;;12.00;99.90;;;;;;5025229;28;20044;-79
2022/05/30 13:12:19;;;;;;;0.93;0.82;;;12.00;99.90;;;;;;5021008;28;20072;-80
2022/05/30 13:14:57;;;;;;;0.32;0.32;;;12.00;99.90;;;;;;5021464;28;20053;-78
2022/05/30 13:17:38;;;;;;;1.08;0.60;;;12.00;99.90;;;;;;5013960;28;20049;-78
2022/05/30 13:20:11;;;;;;;0.50;0.50;;;11.90;99.90;;;;;;5050853;28;20037;-77
2022/05/30 13:22:46;;;;;;;0.63;0.63;;;12.00;99.90;;;;;;5023253;28;20068;-79
2022/05/30 13:25:31;;;;;;;0.80;0.80;;;11.90;99.90;;;;;;5031254;28;20041;-78
2022/05/30 13:28:34;;;;;;;0.55;0.55;;;12.00;99.90;;;;;;5037615;28;20072;-80
2022/05/30 13:31:03;;;;;;;0.77;0.70;;;12.10;99.90;;;;;;5033965;28;20046;-80
2022/05/30 13:33:34;;;;;;;0.50;0.50;;;12.20;99.90;;;;;;5017386;28;20041;-79
2022/05/30 13:36:04;;;;;;;0.45;0.45;;;12.20;99.90;;;;;;5019654;28;20038;-83
2022/05/30 13:38:32;;;;;;;0.40;0.40;;;12.20;99.90;;;;;;5006470;28;20087;-80
2022/05/30 13:40:57;;;;;;;0.40;0.40;;;12.20;99.90;;;;;;5035334;28;20457;-79
2022/05/30 13:43:33;;;;;;;0.40;0.40;;;12.20;99.90;;;;;;4997368;28;20133;-81
2022/05/30 13:45:59;;;;;;;0.47;0.47;;;11.60;99.90;;;;;;5053191;28;20069;-80
2022/05/30 13:48:25;;;;;;;0.30;0.30;;;12.10;99.90;;;;;;5022106;28;20046;-80